Huvudsida
METAR-TAF:

METAR-TAF

Flygplatser :

Pärnu, Estland

Pärnu flygplats

latitud: 58-25-09N, longitud: 024-28-22E, höjd: 14 m

Aktuellt väderrapport

Denna rapport gjordes för 13 timmar och 29 minuter sedan, klockan 13:50 UTC
Vind 2 kt varierande vindriktning
Temperatur -4°C
Fuktighet 93%
Tryck 996 hPa
Sikt: 3600 m
Brutna moln på en höjd av 800 ft
Mulet på en höjd av 1400 ft
lätt snö, fuktdis

METAR: EEPU 181350Z VRB02KT 3600 -SN BR BKN008 OVC014 M04/M05 Q0996

Tid: 05:19 (03:19 UTC)


TAF: saknas

Aktuella väderrapporter och prognoser från 4000 flygplatser (METAR- och TAF-rapporter).

De tillgängliga stationerna syns som gula och röda prickar på kartan.

För musen över prickarna för att se namnen på stationerna.

Klicka sedan för att få väderrapporter och prognoser.

För att ändra kartan: Klicka på de gröna knapparna med ett svart kors på för att zooma in; den gröna knappen med ett streck på för att zooma ut; eller på de gröna pilarna för angränsande kartor.


METAR-TAF: